Time;durP1;ratioP1;P1;durP2;ratioP2;P2;SDS_P1;SDS_P2;PMS_P1;PMS_P2;Temp;Humidity;BMP_temperature;BMP_pressure;BME280_temperature;BME280_humidity;BME280_pressure;Samples;Min_cycle;Max_cycle;Signal;HPM_P1;HPM_P2
2021/12/12 00:00:20;;;;;;;14.27;6.67;;;;;;;3.05;100.00;99849.69;4965741;28;20234;-88
2021/12/12 00:02:56;;;;;;;15.50;6.23;;;;;;;2.97;100.00;99839.38;4970972;28;20196;-88
2021/12/12 00:05:41;;;;;;;12.30;6.50;;;;;;;2.90;100.00;99837.81;4970494;28;20210;-88
2021/12/12 00:08:11;;;;;;;12.53;6.13;;;;;;;2.88;100.00;99843.06;4916741;29;20356;-88
2021/12/12 00:10:42;;;;;;;15.60;6.73;;;;;;;2.82;100.00;99845.81;4916282;29;20249;-88
2021/12/12 00:13:16;;;;;;;9.97;5.90;;;;;;;2.73;100.00;99843.41;4913123;29;20201;-88
2021/12/12 00:15:45;;;;;;;13.40;5.67;;;;;;;2.82;100.00;99852.81;4952495;29;20208;-88
2021/12/12 00:18:13;;;;;;;14.27;4.90;;;;;;;2.85;100.00;99853.59;4950542;29;20193;-88
2021/12/12 00:20:46;;;;;;;16.73;5.03;;;;;;;2.77;100.00;99849.41;4949330;29;20219;-88
2021/12/12 00:23:14;;;;;;;13.47;5.27;;;;;;;2.74;100.00;99847.75;4986744;28;20298;-88
2021/12/12 00:25:57;;;;;;;11.83;4.97;;;;;;;2.74;100.00;99849.50;5015947;28;20691;-87
2021/12/12 00:28:27;;;;;;;10.17;4.57;;;;;;;2.65;100.00;99840.09;5049381;28;20688;-88
2021/12/12 00:31:07;;;;;;;10.13;4.23;;;;;;;2.73;100.00;99846.03;5050295;28;20200;-88
2021/12/12 00:33:39;;;;;;;11.33;4.30;;;;;;;2.50;100.00;99843.84;5004648;28;20235;-89
2021/12/12 00:36:16;;;;;;;10.20;4.03;;;;;;;2.51;100.00;99849.94;5053163;28;20252;-88
2021/12/12 00:38:48;;;;;;;9.97;4.67;;;;;;;2.55;100.00;99842.03;5049190;28;20199;-88
2021/12/12 00:41:27;;;;;;;15.00;5.10;;;;;;;2.44;100.00;99849.22;5054852;28;20219;-89
2021/12/12 00:43:59;;;;;;;10.53;4.97;;;;;;;2.56;100.00;99848.97;5052366;28;20197;-88
2021/12/12 00:46:28;;;;;;;9.83;4.70;;;;;;;2.50;100.00;99849.09;5068052;28;20199;-87
2021/12/12 00:48:57;;;;;;;11.93;4.60;;;;;;;2.37;100.00;99852.84;5091080;28;20210;-88
2021/12/12 00:51:33;;;;;;;12.47;5.37;;;;;;;2.52;100.00;99851.69;5088183;28;20195;-88
2021/12/12 00:54:04;;;;;;;7.57;4.50;;;;;;;2.58;100.00;99856.78;5090959;28;20292;-88
2021/12/12 00:56:35;;;;;;;10.23;5.03;;;;;;;2.57;100.00;99868.13;5092719;28;20298;-87
2021/12/12 00:59:05;;;;;;;11.73;6.40;;;;;;;2.47;100.00;99866.59;5091830;28;20214;-88
2021/12/12 01:01:36;;;;;;;15.37;7.47;;;;;;;2.48;100.00;99860.47;5085514;28;20198;-88
2021/12/12 01:04:10;;;;;;;11.90;6.20;;;;;;;2.50;100.00;99870.00;5086127;28;20203;-88
2021/12/12 01:06:40;;;;;;;12.67;6.13;;;;;;;2.35;100.00;99867.72;5083873;28;20207;-88
2021/12/12 01:09:16;;;;;;;17.37;9.43;;;;;;;2.48;100.00;99863.09;5090842;28;20205;-87
2021/12/12 01:11:48;;;;;;;13.43;6.70;;;;;;;2.49;100.00;99877.88;5090602;28;20198;-88
2021/12/12 01:14:21;;;;;;;10.60;5.47;;;;;;;2.46;100.00;99873.59;5088253;28;20195;-88
2021/12/12 01:16:58;;;;;;;12.53;6.03;;;;;;;2.25;100.00;99882.69;5089251;28;20262;-87
2021/12/12 01:19:31;;;;;;;10.53;4.77;;;;;;;2.30;100.00;99878.22;5086687;28;20188;-88
2021/12/12 01:22:06;;;;;;;10.70;4.80;;;;;;;2.32;100.00;99880.84;5095449;28;20202;-88
2021/12/12 01:24:41;;;;;;;13.13;5.13;;;;;;;2.42;100.00;99876.31;5089798;28;20593;-88
2021/12/12 01:27:11;;;;;;;11.80;5.03;;;;;;;2.39;100.00;99868.50;5088135;28;20195;-88
2021/12/12 01:29:42;;;;;;;13.90;5.70;;;;;;;2.28;100.00;99866.97;5094284;28;20230;-87
2021/12/12 01:32:22;;;;;;;9.10;5.37;;;;;;;2.37;100.00;99858.06;5090284;28;20207;-87
2021/12/12 01:34:51;;;;;;;12.37;6.23;;;;;;;2.37;100.00;99857.22;5088755;28;20199;-87
2021/12/12 01:37:36;;;;;;;13.17;6.90;;;;;;;2.27;100.00;99849.56;5093185;28;20253;-87
2021/12/12 01:40:12;;;;;;;16.50;7.97;;;;;;;2.26;100.00;99850.44;5088842;28;20242;-87
2021/12/12 01:42:43;;;;;;;15.23;8.13;;;;;;;2.09;100.00;99852.50;5092107;28;20198;-87
2021/12/12 01:45:19;;;;;;;17.87;7.70;;;;;;;2.04;100.00;99854.38;5089846;28;20253;-88
2021/12/12 01:47:51;;;;;;;14.63;7.93;;;;;;;2.03;100.00;99856.97;5093098;28;20184;-87
2021/12/12 01:50:26;;;;;;;13.83;7.00;;;;;;;2.00;100.00;99847.44;5093183;28;20192;-88
2021/12/12 01:52:57;;;;;;;15.67;7.23;;;;;;;2.00;100.00;99842.22;5090032;28;20206;-88
2021/12/12 01:55:30;;;;;;;15.50;7.60;;;;;;;2.01;100.00;99836.09;5087459;28;20199;-86
2021/12/12 01:58:02;;;;;;;14.43;8.10;;;;;;;1.93;100.00;99838.88;5085556;28;20191;-87
2021/12/12 02:00:37;;;;;;;15.43;7.70;;;;;;;1.98;100.00;99844.88;5092635;28;20264;-87
2021/12/12 02:03:09;;;;;;;20.03;10.03;;;;;;;1.94;100.00;99843.22;5096999;28;20207;-87
2021/12/12 02:05:39;;;;;;;21.30;12.00;;;;;;;2.03;100.00;99854.38;5092754;28;20201;-86
2021/12/12 02:08:13;;;;;;;26.50;13.70;;;;;;;1.94;100.00;99856.28;5096877;28;20192;-87
2021/12/12 02:10:43;;;;;;;21.23;13.10;;;;;;;1.92;100.00;99854.56;5094014;28;20206;-87
2021/12/12 02:13:17;;;;;;;24.53;13.70;;;;;;;1.73;100.00;99859.22;5088331;28;20207;-88
2021/12/12 02:15:47;;;;;;;24.70;13.77;;;;;;;1.80;100.00;99857.41;5091179;28;20196;-87
2021/12/12 02:18:24;;;;;;;24.37;12.60;;;;;;;1.84;100.00;99864.31;5096730;28;20184;-87
2021/12/12 02:21:07;;;;;;;22.17;14.10;;;;;;;1.72;100.00;99865.34;5091555;28;20214;-87
2021/12/12 02:23:56;;;;;;;20.93;13.60;;;;;;;1.65;100.00;99864.63;5093649;28;20199;-87
2021/12/12 02:35:14;;;;;;;24.77;13.40;;;;;;;1.44;100.00;99872.75;5093767;28;20204;-87
2021/12/12 02:37:43;;;;;;;20.07;12.50;;;;;;;1.57;100.00;99884.75;5091105;28;20249;-87
2021/12/12 02:40:20;;;;;;;25.33;13.03;;;;;;;1.25;100.00;99874.78;5093590;28;20199;-87
2021/12/12 02:42:49;;;;;;;19.27;12.20;;;;;;;1.37;100.00;99858.97;5093620;28;20200;-87
2021/12/12 02:45:20;;;;;;;22.03;12.17;;;;;;;1.49;100.00;99867.50;5056550;28;20206;-87
2021/12/12 02:47:54;;;;;;;19.93;11.77;;;;;;;1.47;100.00;99874.50;5090942;28;20196;-87
2021/12/12 02:50:27;;;;;;;22.73;12.10;;;;;;;1.37;100.00;99872.00;5096442;28;20259;-87
2021/12/12 02:52:59;;;;;;;21.67;11.30;;;;;;;1.41;100.00;99876.28;5087279;28;20210;-87
2021/12/12 02:55:32;;;;;;;21.17;11.20;;;;;;;1.31;100.00;99872.09;5093545;28;20199;-86
2021/12/12 02:58:03;;;;;;;19.70;11.50;;;;;;;1.41;100.00;99878.91;5092249;28;20203;-88
2021/12/12 03:00:35;;;;;;;19.00;11.17;;;;;;;1.31;100.00;99871.25;5093378;28;20224;-87
2021/12/12 03:03:08;;;;;;;18.53;10.97;;;;;;;1.28;100.00;99877.38;5093427;28;20199;-87
2021/12/12 03:05:43;;;;;;;20.73;10.40;;;;;;;1.27;100.00;99874.78;5091577;28;20204;-87
2021/12/12 03:08:13;;;;;;;20.90;10.83;;;;;;;1.23;100.00;99870.47;5096028;28;20198;-87
2021/12/12 03:10:47;;;;;;;20.40;10.93;;;;;;;1.27;100.00;99873.03;5090613;28;20235;-87
2021/12/12 03:13:16;;;;;;;23.50;10.33;;;;;;;1.34;100.00;99879.88;5092603;28;20199;-87
2021/12/12 03:15:48;;;;;;;18.23;10.60;;;;;;;1.33;100.00;99866.84;5089554;28;20240;-87
2021/12/12 03:18:21;;;;;;;21.33;10.67;;;;;;;1.30;100.00;99865.16;5092571;28;20192;-86
2021/12/12 03:20:53;;;;;;;22.87;10.53;;;;;;;1.31;100.00;99869.50;5093731;28;20215;-88
2021/12/12 03:23:27;;;;;;;18.17;10.63;;;;;;;1.27;100.00;99862.59;5093625;28;20195;-87
2021/12/12 03:26:00;;;;;;;20.17;10.17;;;;;;;1.18;100.00;99860.13;5089769;28;20218;-87
2021/12/12 03:28:31;;;;;;;16.03;9.70;;;;;;;1.19;100.00;99861.84;5083928;28;20228;-87
2021/12/12 03:31:02;;;;;;;17.50;10.17;;;;;;;1.19;100.00;99871.44;5091990;28;20229;-87
2021/12/12 03:33:32;;;;;;;17.47;9.77;;;;;;;1.29;100.00;99870.41;5095680;28;20219;-87
2021/12/12 03:36:03;;;;;;;16.07;9.30;;;;;;;1.18;100.00;99872.31;5087429;28;20203;-87
2021/12/12 03:38:33;;;;;;;17.73;9.97;;;;;;;1.04;100.00;99868.13;5093751;28;20203;-87
2021/12/12 03:41:09;;;;;;;18.70;9.50;;;;;;;1.03;100.00;99870.78;5082558;28;20216;-87
2021/12/12 03:43:38;;;;;;;20.13;10.63;;;;;;;1.06;100.00;99865.50;5092283;28;20203;-87
2021/12/12 03:46:10;;;;;;;21.10;10.07;;;;;;;0.96;100.00;99880.41;5092239;28;20195;-87
2021/12/12 03:48:41;;;;;;;20.60;10.93;;;;;;;1.06;100.00;99866.38;5087910;28;20195;-87
2021/12/12 03:51:15;;;;;;;19.27;9.93;;;;;;;1.10;100.00;99864.59;5089510;28;20206;-87
2021/12/12 03:53:44;;;;;;;20.47;9.90;;;;;;;1.12;100.00;99878.47;5095180;28;20242;-86
2021/12/12 03:56:16;;;;;;;20.70;9.63;;;;;;;1.06;100.00;99889.88;5094330;28;20343;-87
2021/12/12 03:58:46;;;;;;;15.07;8.50;;;;;;;1.12;100.00;99874.13;5088422;28;20188;-87
2021/12/12 04:01:19;;;;;;;15.93;9.53;;;;;;;1.03;100.00;99876.84;5095211;28;20261;-87
2021/12/12 04:03:49;;;;;;;18.03;9.30;;;;;;;1.02;100.00;99885.56;5086625;28;20229;-87
2021/12/12 04:06:22;;;;;;;20.97;9.83;;;;;;;1.04;100.00;99886.38;5090805;28;20249;-87
2021/12/12 04:08:52;;;;;;;19.23;10.73;;;;;;;1.11;100.00;99890.66;5095012;28;20710;-88
2021/12/12 04:11:28;;;;;;;18.53;9.87;;;;;;;1.06;100.00;99900.31;5031909;28;20200;-87
2021/12/12 04:13:57;;;;;;;17.27;9.80;;;;;;;1.12;100.00;99901.94;5029972;28;20240;-87
2021/12/12 04:16:27;;;;;;;20.03;10.27;;;;;;;1.09;100.00;99909.81;5030086;28;20276;-87
2021/12/12 04:18:57;;;;;;;19.57;10.27;;;;;;;1.13;100.00;99903.66;5032762;28;20233;-86
2021/12/12 04:21:27;;;;;;;19.87;9.60;;;;;;;1.21;100.00;99907.03;5032242;28;20254;-87
2021/12/12 04:23:56;;;;;;;21.80;10.53;;;;;;;1.12;100.00;99902.81;5028180;28;20190;-87
2021/12/12 04:26:31;;;;;;;19.50;10.17;;;;;;;1.07;100.00;99909.84;4947725;29;20208;-87
2021/12/12 04:29:02;;;;;;;18.13;10.00;;;;;;;1.10;100.00;99907.19;4950692;29;20228;-87
2021/12/12 04:31:30;;;;;;;20.40;9.57;;;;;;;1.11;100.00;99901.09;4951803;28;20239;-87
2021/12/12 04:34:00;;;;;;;17.70;9.47;;;;;;;1.18;100.00;99911.44;4950838;29;20291;-88
2021/12/12 04:36:31;;;;;;;18.40;9.90;;;;;;;1.24;100.00;99919.16;4989597;28;20198;-87
2021/12/12 04:39:05;;;;;;;22.10;9.60;;;;;;;1.24;100.00;99920.03;5008453;28;20202;-87
2021/12/12 04:41:36;;;;;;;16.37;9.70;;;;;;;1.32;100.00;99919.94;5011058;28;20711;-87
2021/12/12 04:44:05;;;;;;;17.30;9.57;;;;;;;1.26;100.00;99914.81;5012574;28;20668;-87
2021/12/12 04:49:54;;;;;;;15.27;9.77;;;;;;;1.21;100.00;99912.25;5012451;28;20194;-88
2021/12/12 04:52:15;;;;;;;19.80;9.87;;;;;;;1.37;100.00;99907.69;5010144;28;20209;-87
2021/12/12 04:54:48;;;;;;;15.57;9.87;;;;;;;1.28;100.00;99916.50;5009785;28;20205;-87
2021/12/12 04:57:24;;;;;;;19.23;10.07;;;;;;;1.38;100.00;99915.50;5002354;28;20190;-87
2021/12/12 04:59:58;;;;;;;19.33;10.10;;;;;;;1.42;100.00;99916.31;5010193;28;20190;-86
2021/12/12 05:02:30;;;;;;;17.50;10.50;;;;;;;1.42;100.00;99917.16;5008575;28;20219;-87
2021/12/12 05:05:05;;;;;;;19.90;9.93;;;;;;;1.40;100.00;99916.31;5007383;28;20217;-87
2021/12/12 05:07:40;;;;;;;16.07;9.97;;;;;;;1.44;100.00;99910.16;5011298;28;20199;-87
2021/12/12 05:10:14;;;;;;;23.43;11.00;;;;;;;1.47;100.00;99921.47;5094131;28;20202;-87
2021/12/12 05:12:47;;;;;;;18.23;10.47;;;;;;;1.47;100.00;99918.84;5087609;28;20187;-87
2021/12/12 05:15:20;;;;;;;21.03;10.90;;;;;;;1.46;100.00;99919.75;5091337;28;20291;-87
2021/12/12 05:17:51;;;;;;;19.33;10.63;;;;;;;1.31;100.00;99911.25;5083066;28;20204;-87
2021/12/12 05:20:23;;;;;;;21.80;11.17;;;;;;;1.37;100.00;99911.16;5087126;28;20662;-87
2021/12/12 05:22:54;;;;;;;19.10;11.53;;;;;;;1.45;100.00;99908.44;5080923;28;20245;-87
2021/12/12 05:25:27;;;;;;;18.70;11.07;;;;;;;1.44;100.00;99914.53;5090748;28;20634;-88
2021/12/12 05:28:00;;;;;;;19.50;11.27;;;;;;;1.35;100.00;99912.03;5101084;28;20176;-88
2021/12/12 05:30:31;;;;;;;25.53;10.97;;;;;;;1.46;100.00;99920.59;5090637;28;20195;-87
2021/12/12 05:33:01;;;;;;;21.13;11.33;;;;;;;1.46;100.00;99914.53;5087385;28;20274;-87
2021/12/12 05:35:32;;;;;;;19.13;11.13;;;;;;;1.52;100.00;99923.09;5089667;28;20195;-87
2021/12/12 05:38:06;;;;;;;21.30;11.40;;;;;;;1.50;100.00;99918.81;5091518;28;20274;-87
2021/12/12 05:40:38;;;;;;;22.80;11.13;;;;;;;1.54;100.00;99921.31;5089451;28;20204;-87
2021/12/12 05:43:08;;;;;;;21.47;10.87;;;;;;;1.59;100.00;99916.91;5092453;28;20222;-87
2021/12/12 05:45:37;;;;;;;22.23;11.50;;;;;;;1.64;100.00;99911.59;5093464;28;20194;-87
2021/12/12 05:48:07;;;;;;;24.20;12.20;;;;;;;1.61;100.00;99924.72;5084260;28;20195;-87
2021/12/12 05:50:37;;;;;;;23.33;11.80;;;;;;;1.58;100.00;99915.19;5093388;28;20199;-87
2021/12/12 05:53:07;;;;;;;25.20;12.37;;;;;;;1.50;100.00;99924.88;5085084;28;20211;-87
2021/12/12 05:55:37;;;;;;;24.80;12.57;;;;;;;1.42;100.00;99914.56;5087740;28;20246;-87
2021/12/12 05:58:10;;;;;;;22.13;12.50;;;;;;;1.50;100.00;99919.66;5087387;28;20196;-87
2021/12/12 06:00:45;;;;;;;22.13;12.80;;;;;;;1.48;100.00;99912.75;5089854;28;20188;-87
2021/12/12 06:03:17;;;;;;;21.63;12.23;;;;;;;1.48;100.00;99910.13;5093272;28;20215;-88
2021/12/12 06:05:46;;;;;;;23.00;12.70;;;;;;;1.46;100.00;99918.00;5093451;28;20210;-87
2021/12/12 06:08:15;;;;;;;22.57;11.50;;;;;;;1.59;100.00;99919.53;5087738;28;20245;-88
2021/12/12 06:10:45;;;;;;;21.57;12.50;;;;;;;1.52;100.00;99917.88;5090020;28;20184;-87
2021/12/12 06:13:18;;;;;;;22.60;12.93;;;;;;;1.53;100.00;99926.56;5090014;28;20192;-87
2021/12/12 06:15:53;;;;;;;22.03;12.43;;;;;;;1.47;100.00;99932.78;5088510;28;20676;-87
2021/12/12 06:18:24;;;;;;;25.83;13.23;;;;;;;1.49;100.00;99932.75;5089862;28;20203;-87
2021/12/12 06:20:52;;;;;;;25.70;12.07;;;;;;;1.53;100.00;99931.78;5088588;28;20196;-87
2021/12/12 06:23:22;;;;;;;28.87;12.83;;;;;;;1.43;100.00;99933.69;5090302;28;20723;-87
2021/12/12 06:25:51;;;;;;;20.97;12.00;;;;;;;1.45;100.00;99947.59;5093016;28;20211;-87
2021/12/12 06:28:24;;;;;;;20.27;10.97;;;;;;;1.55;100.00;99936.13;5088990;28;20224;-87
2021/12/12 06:30:54;;;;;;;18.77;11.33;;;;;;;1.58;100.00;99936.06;5093000;28;20196;-87
2021/12/12 06:33:23;;;;;;;26.03;12.50;;;;;;;1.46;100.00;99938.03;5090200;28;20789;-87
2021/12/12 06:35:52;;;;;;;18.87;11.83;;;;;;;1.53;100.00;99940.50;5089987;28;20188;-87
2021/12/12 06:38:23;;;;;;;22.27;11.80;;;;;;;1.55;100.00;99930.91;5092821;28;20195;-87
2021/12/12 06:40:51;;;;;;;23.87;11.77;;;;;;;1.46;100.00;99933.66;5087337;28;20209;-87
2021/12/12 06:43:23;;;;;;;23.43;11.67;;;;;;;1.53;100.00;99944.84;5088881;28;20212;-87
2021/12/12 06:45:52;;;;;;;23.77;11.50;;;;;;;1.51;100.00;99931.81;5092393;28;20204;-87
2021/12/12 06:48:20;;;;;;;21.17;10.77;;;;;;;1.56;100.00;99931.78;5096449;28;20184;-87
2021/12/12 06:50:52;;;;;;;23.60;10.80;;;;;;;1.51;100.00;99934.44;5092115;28;20245;-88
2021/12/12 06:53:25;;;;;;;25.97;11.83;;;;;;;1.59;100.00;99937.81;5093910;28;20195;-88
2021/12/12 06:55:55;;;;;;;21.13;11.17;;;;;;;1.56;100.00;99947.44;5090809;28;20245;-88
2021/12/12 06:58:28;;;;;;;19.03;10.87;;;;;;;1.67;100.00;99961.19;5087415;28;20203;-88
2021/12/12 07:01:01;;;;;;;21.17;10.93;;;;;;;1.61;100.00;99958.66;5093465;28;20200;-87
2021/12/12 07:03:31;;;;;;;18.00;10.90;;;;;;;1.62;100.00;99960.38;5091482;28;20678;-87
2021/12/12 07:06:00;;;;;;;18.67;11.60;;;;;;;1.58;100.00;99958.72;5047949;28;20646;-88
2021/12/12 07:08:29;;;;;;;19.47;11.23;;;;;;;1.67;100.00;99959.44;5096253;28;20188;-88
2021/12/12 07:10:58;;;;;;;21.77;11.10;;;;;;;1.62;100.00;99955.16;5089930;28;20204;-88
2021/12/12 07:13:28;;;;;;;16.70;10.63;;;;;;;1.57;100.00;99965.69;5095100;28;20192;-88
2021/12/12 07:16:01;;;;;;;23.93;11.73;;;;;;;1.53;100.00;99960.50;5085300;28;20282;-87
2021/12/12 07:18:32;;;;;;;18.60;10.83;;;;;;;1.55;100.00;99961.38;5090115;28;20278;-89
2021/12/12 07:21:05;;;;;;;16.77;11.20;;;;;;;1.59;100.00;99968.25;5090860;28;20190;-88
2021/12/12 07:23:35;;;;;;;25.03;11.77;;;;;;;1.63;100.00;99960.34;5096130;28;20253;-89
2021/12/12 07:26:07;;;;;;;19.47;11.10;;;;;;;1.60;100.00;99970.00;5095437;28;20203;-89
2021/12/12 07:28:38;;;;;;;17.50;10.60;;;;;;;1.64;100.00;99958.59;5089006;28;20241;-89
2021/12/12 07:31:11;;;;;;;21.27;10.90;;;;;;;1.62;100.00;99958.63;5096092;28;20221;-89
2021/12/12 07:33:40;;;;;;;16.37;9.90;;;;;;;1.61;100.00;99951.69;5091215;28;20200;-88
2021/12/12 07:36:12;;;;;;;22.40;11.47;;;;;;;1.57;100.00;99963.06;5095755;28;20195;-89
2021/12/12 07:38:45;;;;;;;17.57;11.10;;;;;;;1.56;100.00;99952.66;5092528;28;20187;-88
2021/12/12 07:41:18;;;;;;;20.20;10.77;;;;;;;1.67;100.00;99951.59;5094243;28;20202;-89
2021/12/12 07:43:48;;;;;;;18.37;10.63;;;;;;;1.68;100.00;99953.31;5092453;28;20237;-89
2021/12/12 07:46:16;;;;;;;18.90;10.33;;;;;;;1.62;100.00;99952.53;4990575;28;20191;-88
2021/12/12 07:48:46;;;;;;;21.30;10.93;;;;;;;1.63;100.00;99957.75;4988842;28;20218;-89
2021/12/12 07:51:15;;;;;;;21.63;10.37;;;;;;;1.69;100.00;99951.56;4985335;28;20207;-89
2021/12/12 07:53:44;;;;;;;22.27;9.90;;;;;;;1.70;100.00;99953.31;4988033;28;20642;-89
2021/12/12 07:56:12;;;;;;;18.57;9.70;;;;;;;1.75;100.00;99954.09;4991991;28;20206;-90
2021/12/12 07:58:40;;;;;;;16.73;9.87;;;;;;;1.68;100.00;99953.31;4988330;28;20202;-89
2021/12/12 08:01:13;;;;;;;20.70;10.40;;;;;;;1.64;100.00;99951.66;4987870;28;20199;-89
2021/12/12 08:03:42;;;;;;;17.73;10.43;;;;;;;1.62;100.00;99942.09;4990865;28;20222;-90
2021/12/12 08:06:14;;;;;;;18.20;11.17;;;;;;;1.68;100.00;99945.50;4994199;28;20195;-89
2021/12/12 08:08:44;;;;;;;17.03;9.77;;;;;;;1.79;100.00;99942.72;4995730;28;20203;-90
2021/12/12 08:11:18;;;;;;;21.10;10.07;;;;;;;1.80;100.00;99944.44;5052007;28;20195;-90
2021/12/12 08:13:46;;;;;;;21.53;11.17;;;;;;;1.68;100.00;99949.84;5089982;28;20196;-89
2021/12/12 08:16:16;;;;;;;17.37;10.60;;;;;;;1.77;100.00;99951.47;5090966;28;20192;-89
2021/12/12 08:18:46;;;;;;;15.70;9.97;;;;;;;1.75;100.00;99950.63;5091048;28;20192;-89
2021/12/12 08:21:16;;;;;;;17.17;9.47;;;;;;;1.92;100.00;99956.44;5090806;28;20188;-89
2021/12/12 08:23:45;;;;;;;16.70;10.33;;;;;;;1.90;100.00;99960.81;5094130;28;20223;-88
2021/12/12 08:26:13;;;;;;;19.43;10.37;;;;;;;1.93;100.00;99955.53;5095480;28;20192;-89
2021/12/12 08:28:43;;;;;;;24.37;10.37;;;;;;;1.85;100.00;99960.91;5088795;28;20720;-89
2021/12/12 08:31:18;;;;;;;16.87;8.97;;;;;;;1.91;100.00;99954.72;5091675;28;20211;-90
2021/12/12 08:33:47;;;;;;;20.87;9.40;;;;;;;1.86;100.00;99960.03;5087394;28;20191;-89
2021/12/12 08:36:16;;;;;;;19.10;9.73;;;;;;;1.88;100.00;99952.16;5089894;28;20680;-88
2021/12/12 08:38:44;;;;;;;19.97;9.63;;;;;;;1.90;100.00;99948.63;5087712;28;20199;-89
2021/12/12 08:41:14;;;;;;;20.73;9.57;;;;;;;1.91;100.00;99954.72;5091619;28;20200;-88
2021/12/12 08:43:43;;;;;;;19.23;8.73;;;;;;;1.87;100.00;99961.75;5095923;28;20265;-89
2021/12/12 08:46:16;;;;;;;16.23;8.23;;;;;;;1.86;100.00;99954.78;5032636;28;20220;-89
2021/12/12 08:48:48;;;;;;;16.73;8.53;;;;;;;1.98;100.00;99959.81;5033701;28;20209;-89
2021/12/12 08:51:25;;;;;;;14.13;9.03;;;;;;;1.98;100.00;99958.94;5037315;28;20194;-89
2021/12/12 08:53:55;;;;;;;19.23;8.67;;;;;;;2.00;100.00;99965.00;5031801;28;20197;-89
2021/12/12 08:56:41;;;;;;;16.97;8.30;;;;;;;1.97;100.00;99952.88;5029260;28;20268;-89
2021/12/12 08:59:19;;;;;;;19.60;7.93;;;;;;;2.07;100.00;99950.97;5029831;28;20218;-88
2021/12/12 09:01:52;;;;;;;18.17;8.43;;;;;;;2.03;100.00;99964.09;4973170;28;20236;-89
2021/12/12 09:04:20;;;;;;;14.10;7.80;;;;;;;1.98;100.00;99962.44;4984266;28;20226;-89
2021/12/12 09:07:02;;;;;;;26.73;9.70;;;;;;;2.07;100.00;99971.00;5010061;28;20209;-89
2021/12/12 09:09:41;;;;;;;13.40;8.03;;;;;;;2.10;100.00;99963.09;5009651;28;20249;-89
2021/12/12 09:12:14;;;;;;;13.40;7.73;;;;;;;2.20;100.00;99965.53;5009172;28;20252;-89
2021/12/12 09:14:48;;;;;;;15.63;8.63;;;;;;;2.21;100.00;99963.78;5009509;28;20202;-89
2021/12/12 09:17:22;;;;;;;21.07;8.87;;;;;;;2.32;100.00;99968.81;5010691;28;20196;-88
2021/12/12 09:19:56;;;;;;;14.00;7.50;;;;;;;2.26;100.00;99967.19;5007382;28;20203;-89
2021/12/12 09:22:32;;;;;;;13.70;7.67;;;;;;;2.29;100.00;99964.53;5009220;28;20261;-89
2021/12/12 09:25:06;;;;;;;13.53;7.50;;;;;;;2.34;100.00;99959.22;5004607;28;20218;-89
2021/12/12 09:27:40;;;;;;;15.27;7.80;;;;;;;2.41;100.00;99956.44;5083358;28;20202;-89
2021/12/12 09:30:12;;;;;;;12.97;7.27;;;;;;;2.46;100.00;99964.22;5083187;28;20227;-89
2021/12/12 09:32:49;;;;;;;14.17;7.87;;;;;;;2.43;100.00;99956.44;5089641;28;20257;-89
2021/12/12 09:35:21;;;;;;;14.60;7.77;;;;;;;2.37;100.00;99957.41;5091732;28;20198;-89
2021/12/12 09:37:56;;;;;;;14.70;7.63;;;;;;;2.41;100.00;99966.91;5090309;28;20192;-88
2021/12/12 09:41:13;;;;;;;14.90;7.20;;;;;;;2.41;100.00;99960.81;5087956;28;20195;-89
2021/12/12 09:43:56;;;;;;;14.47;7.67;;;;;;;2.49;100.00;99959.78;5066284;28;20286;-89
2021/12/12 09:47:01;;;;;;;19.37;8.30;;;;;;;2.56;100.00;99948.34;5089895;28;20199;-89
2021/12/12 09:53:12;;;;;;;16.50;7.23;;;;;;;2.58;100.00;99938.72;5093689;28;20308;-89
2021/12/12 09:55:49;;;;;;;12.90;8.07;;;;;;;2.55;100.00;99932.69;5089255;28;20188;-88
2021/12/12 09:58:33;;;;;;;14.43;7.80;;;;;;;2.62;100.00;99939.53;5089716;28;20198;-89
2021/12/12 10:01:04;;;;;;;10.70;7.20;;;;;;;2.61;100.00;99939.56;5093357;28;20194;-89
2021/12/12 10:03:50;;;;;;;16.73;7.40;;;;;;;2.61;100.00;99942.19;5090098;28;20199;-89
2021/12/12 10:06:31;;;;;;;15.23;7.60;;;;;;;2.48;100.00;99929.31;5090240;28;20216;-90
2021/12/12 10:09:04;;;;;;;14.30;7.77;;;;;;;2.52;100.00;99922.28;5093210;28;20248;-88
2021/12/12 10:11:39;;;;;;;14.27;8.13;;;;;;;2.47;100.00;99932.81;5089267;28;20206;-89
2021/12/12 10:14:14;;;;;;;14.77;7.47;;;;;;;2.53;100.00;99916.16;5091655;28;20187;-89
2021/12/12 10:16:50;;;;;;;12.67;7.67;;;;;;;2.51;100.00;99912.69;5089794;28;20284;-90
2021/12/12 10:19:30;;;;;;;13.83;7.37;;;;;;;2.59;100.00;99914.28;5087680;28;20221;-89
2021/12/12 10:22:13;;;;;;;19.13;8.80;;;;;;;2.66;100.00;99919.41;5090261;28;20187;-90
2021/12/12 10:24:48;;;;;;;13.13;7.40;;;;;;;2.64;100.00;99923.81;5098806;28;20211;-90
2021/12/12 10:27:25;;;;;;;18.33;9.10;;;;;;;2.55;100.00;99920.47;5091966;28;20195;-90
2021/12/12 10:30:05;;;;;;;16.17;7.67;;;;;;;2.68;100.00;99930.69;5092757;28;20231;-90
2021/12/12 10:32:36;;;;;;;15.37;8.07;;;;;;;2.63;100.00;99930.78;5094251;28;20278;-90
2021/12/12 10:35:08;;;;;;;18.67;8.50;;;;;;;2.65;100.00;99933.38;5092272;28;20200;-90
2021/12/12 10:37:49;;;;;;;12.80;8.10;;;;;;;2.64;100.00;99936.88;5089912;28;20666;-90
2021/12/12 10:40:24;;;;;;;18.93;10.40;;;;;;;2.59;100.00;99942.19;5099193;28;20249;-90
2021/12/12 10:42:55;;;;;;;18.07;10.50;;;;;;;2.54;100.00;99939.66;5107029;28;20191;-88
2021/12/12 10:45:29;;;;;;;16.30;10.00;;;;;;;2.69;100.00;99943.72;5105945;28;20215;-89
2021/12/12 10:48:01;;;;;;;16.80;10.07;;;;;;;2.70;100.00;99941.97;5091818;28;20191;-90
2021/12/12 10:50:41;;;;;;;19.70;10.80;;;;;;;2.63;100.00;99937.78;5097008;28;20207;-89
2021/12/12 10:53:20;;;;;;;17.57;10.10;;;;;;;2.73;100.00;99934.09;5105462;28;20184;-87
2021/12/12 10:55:54;;;;;;;15.07;9.10;;;;;;;2.68;100.00;99928.94;5116197;28;20200;-87
2021/12/12 10:58:29;;;;;;;18.53;8.57;;;;;;;2.73;100.00;99940.19;5093416;28;20192;-88
2021/12/12 11:01:01;;;;;;;15.80;9.20;;;;;;;2.72;100.00;99937.59;5092363;28;20197;-89
2021/12/12 11:03:34;;;;;;;24.17;10.63;;;;;;;2.68;100.00;99938.53;5094106;28;20206;-88
2021/12/12 11:06:07;;;;;;;22.93;12.13;;;;;;;2.75;100.00;99941.00;5086091;28;20223;-90
2021/12/12 11:08:41;;;;;;;17.53;9.43;;;;;;;2.68;100.00;99943.75;5093054;28;20192;-90
2021/12/12 11:11:15;;;;;;;16.80;9.20;;;;;;;2.67;100.00;99940.28;5095634;28;20197;-89
2021/12/12 11:13:50;;;;;;;13.97;8.83;;;;;;;2.76;100.00;99926.16;5090966;28;20191;-90
2021/12/12 11:16:26;;;;;;;21.07;9.87;;;;;;;2.73;100.00;99921.00;5085503;28;20191;-88
2021/12/12 11:19:02;;;;;;;15.50;9.00;;;;;;;2.78;100.00;99925.25;5087900;28;20191;-88
2021/12/12 11:21:35;;;;;;;15.77;9.47;;;;;;;2.74;100.00;99927.97;5088181;28;20200;-90
2021/12/12 11:24:13;;;;;;;18.23;10.03;;;;;;;2.87;100.00;99930.28;5098867;28;20195;-89
2021/12/12 11:26:47;;;;;;;16.20;10.30;;;;;;;2.77;100.00;99939.22;5094585;28;20227;-89
2021/12/12 11:29:18;;;;;;;18.93;9.63;;;;;;;2.93;100.00;99941.53;5100764;28;20282;-90
2021/12/12 11:31:50;;;;;;;16.57;10.53;;;;;;;2.84;100.00;99942.59;5092560;28;20211;-89
2021/12/12 11:34:44;;;;;;;18.20;10.27;;;;;;;2.90;100.00;99947.69;5098491;28;20191;-89
2021/12/12 11:37:23;;;;;;;19.10;10.00;;;;;;;2.84;100.00;99938.22;5097003;28;20195;-89
2021/12/12 11:39:58;;;;;;;20.03;10.50;;;;;;;2.93;100.00;99931.94;5097254;28;20198;-89
2021/12/12 11:42:33;;;;;;;18.23;11.23;;;;;;;2.89;100.00;99925.00;5090797;28;20229;-90
2021/12/12 11:45:10;;;;;;;21.30;10.23;;;;;;;2.99;100.00;99933.53;5036508;28;20276;-89
2021/12/12 11:47:53;;;;;;;20.30;10.77;;;;;;;2.94;100.00;99928.41;5029178;28;20297;-90
2021/12/12 11:50:29;;;;;;;19.10;11.87;;;;;;;2.93;100.00;99936.31;5028375;28;20208;-89
2021/12/12 11:53:00;;;;;;;18.30;11.30;;;;;;;3.00;100.00;99936.16;5032094;28;20201;-90
2021/12/12 11:55:37;;;;;;;20.30;11.47;;;;;;;2.90;100.00;99928.53;5031450;28;20515;-89
2021/12/12 11:58:12;;;;;;;17.40;11.70;;;;;;;2.94;100.00;99930.16;5029553;28;20297;-89
2021/12/12 12:00:49;;;;;;;15.93;10.97;;;;;;;3.02;100.00;99930.88;5028109;28;20200;-90
2021/12/12 12:03:27;;;;;;;16.27;10.87;;;;;;;3.03;100.00;99932.59;5065056;28;20261;-90